createdAt,value
2023-04-14T00:03:37.549Z,8.23
2023-04-14T00:08:35.839Z,8.02
2023-04-14T00:13:32.461Z,8.50
2023-04-14T00:18:28.926Z,8.18
2023-04-14T00:23:25.304Z,9.35
2023-04-14T00:28:21.819Z,8.93
2023-04-14T00:33:18.276Z,8.13
2023-04-14T00:38:14.695Z,7.50
2023-04-14T00:43:11.854Z,8.68
2023-04-14T00:48:09.166Z,8.00
2023-04-14T00:53:05.873Z,7.93
2023-04-14T00:58:03.358Z,8.32
2023-04-14T01:03:00.623Z,7.82
2023-04-14T01:07:57.712Z,9.35
2023-04-14T01:13:13.624Z,7.97
2023-04-14T01:18:19.688Z,7.90
2023-04-14T01:23:24.569Z,8.75
2023-04-14T01:28:43.374Z,8.55
2023-04-14T01:33:42.964Z,8.70
2023-04-14T01:38:42.541Z,8.32
2023-04-14T01:43:42.436Z,8.18
2023-04-14T01:48:41.381Z,9.05
2023-04-14T01:53:43.310Z,8.45
2023-04-14T01:58:42.286Z,8.38
2023-04-14T02:03:40.690Z,9.35
2023-04-14T02:08:41.660Z,9.55
2023-04-14T02:13:41.282Z,9.45
2023-04-14T02:18:39.731Z,10.68
2023-04-14T02:23:36.305Z,9.15
2023-04-14T02:28:36.809Z,8.13
2023-04-14T02:33:37.120Z,8.45
2023-04-14T02:38:37.477Z,8.65
2023-04-14T02:43:42.387Z,8.90
2023-04-14T02:48:42.846Z,8.93
2023-04-14T02:53:39.884Z,8.77
2023-04-14T02:58:38.939Z,8.70
2023-04-14T03:03:37.559Z,9.50
2023-04-14T03:08:35.714Z,8.88
2023-04-14T03:13:34.460Z,8.43
2023-04-14T03:18:33.210Z,8.65
2023-04-14T03:23:33.676Z,8.85
2023-04-14T03:28:37.028Z,8.55
2023-04-14T03:33:38.575Z,8.50
2023-04-14T03:38:36.895Z,8.50
2023-04-14T03:43:33.672Z,9.35
2023-04-14T03:48:34.539Z,9.50
2023-04-14T03:53:34.652Z,9.60
2023-04-14T03:58:31.833Z,9.65
2023-04-14T04:03:29.448Z,9.32
2023-04-14T04:08:26.610Z,9.00
2023-04-14T04:13:24.061Z,9.10
2023-04-14T04:23:54.120Z,9.63
2023-04-14T04:28:51.617Z,8.88
2023-04-14T04:34:00.973Z,8.93
2023-04-14T04:38:58.547Z,9.38
2023-04-14T04:43:56.741Z,9.23
2023-04-14T04:48:55.411Z,9.48
2023-04-14T04:53:52.403Z,8.57
2023-04-14T04:58:48.888Z,9.02
2023-04-14T05:03:46.059Z,9.00
2023-04-14T05:08:42.689Z,8.60
2023-04-14T05:13:39.180Z,8.48
2023-04-14T05:18:36.594Z,8.98
2023-04-14T05:23:33.926Z,9.55
2023-04-14T05:28:30.751Z,9.10
2023-04-14T05:33:27.253Z,9.02
2023-04-14T05:38:23.791Z,9.60
2023-04-14T05:43:20.174Z,9.18
2023-04-14T05:48:17.669Z,9.05
2023-04-14T05:53:15.192Z,8.63
2023-04-14T05:58:12.546Z,8.80
2023-04-14T06:03:09.219Z,9.30
2023-04-14T06:08:06.006Z,9.40
2023-04-14T06:13:02.472Z,10.00
2023-04-14T06:17:58.996Z,9.50
2023-04-14T06:22:55.556Z,10.20
2023-04-14T06:27:51.936Z,9.80
2023-04-14T06:32:51.284Z,9.60
2023-04-14T06:37:47.725Z,9.65
2023-04-14T06:42:44.145Z,10.57
2023-04-14T06:47:40.672Z,10.25
2023-04-14T06:52:37.150Z,10.85
2023-04-14T06:57:33.607Z,10.68
2023-04-14T07:02:30.118Z,10.68
2023-04-14T07:07:26.570Z,10.80
2023-04-14T07:12:23.013Z,9.45
2023-04-14T07:17:19.948Z,10.75
2023-04-14T07:22:16.736Z,10.32
2023-04-14T07:27:15.142Z,8.60
2023-04-14T07:32:13.206Z,10.05
2023-04-14T07:37:10.753Z,9.30
2023-04-14T07:42:07.383Z,9.63
2023-04-14T07:47:03.928Z,10.15
2023-04-14T07:52:01.380Z,8.68
2023-04-14T07:56:57.957Z,10.70
2023-04-14T08:01:54.476Z,9.00
2023-04-14T08:06:51.046Z,7.53
2023-04-14T08:11:47.484Z,6.40
2023-04-14T08:16:44.017Z,5.60
2023-04-14T08:21:40.656Z,5.78
2023-04-14T08:26:37.042Z,5.20
2023-04-14T08:31:33.589Z,4.45
2023-04-14T08:36:31.317Z,5.07
2023-04-14T08:41:28.357Z,5.28
2023-04-14T08:46:27.439Z,5.13
2023-04-14T08:51:39.342Z,5.10
2023-04-14T08:56:41.751Z,5.15
2023-04-14T09:06:35.284Z,5.03
2023-04-14T09:11:31.964Z,4.60
2023-04-14T09:16:29.068Z,5.43
2023-04-14T09:21:27.474Z,7.68
2023-04-14T09:26:44.080Z,4.43
2023-04-14T09:31:40.734Z,4.50
2023-04-14T09:36:37.246Z,5.20
2023-04-14T09:41:34.149Z,4.53
2023-04-14T09:46:31.230Z,4.60
2023-04-14T09:51:29.465Z,6.00
2023-04-14T09:56:27.807Z,5.10
2023-04-14T10:01:30.926Z,5.55
2023-04-14T10:06:27.521Z,5.03
2023-04-14T10:11:32.810Z,5.70
2023-04-14T10:16:30.016Z,4.63
2023-04-14T10:21:27.737Z,5.40
2023-04-14T10:26:29.627Z,5.00
2023-04-14T10:31:34.464Z,5.50
2023-04-14T10:36:31.954Z,5.72
2023-04-14T10:41:45.372Z,4.93
2023-04-14T10:46:44.703Z,5.05
2023-04-14T10:51:41.724Z,5.35
2023-04-14T10:56:38.316Z,5.30
2023-04-14T11:01:36.057Z,5.35
2023-04-14T11:06:47.715Z,5.10
2023-04-14T11:11:44.089Z,6.60
2023-04-14T11:16:50.538Z,4.90
2023-04-14T11:21:55.788Z,5.47
2023-04-14T11:26:53.880Z,5.50
2023-04-14T11:32:06.436Z,5.85
2023-04-14T11:37:03.916Z,6.20
2023-04-14T11:42:00.495Z,5.50
2023-04-14T11:46:57.091Z,5.47
2023-04-14T11:51:56.250Z,5.18
2023-04-14T11:56:52.741Z,4.90
2023-04-14T12:01:51.348Z,5.47
2023-04-14T12:06:47.826Z,5.68
2023-04-14T12:11:54.602Z,5.50
2023-04-14T12:16:51.288Z,5.68
2023-04-14T12:21:53.019Z,6.20
2023-04-14T12:26:49.468Z,6.50
2023-04-14T12:31:46.980Z,6.10
2023-04-14T12:36:50.924Z,6.30
2023-04-14T12:41:48.248Z,6.25
2023-04-14T12:46:52.568Z,6.18
2023-04-14T12:51:49.148Z,5.85
2023-04-14T12:56:45.737Z,5.90
2023-04-14T13:01:42.711Z,6.60
2023-04-14T13:06:39.446Z,6.10
2023-04-14T13:11:35.883Z,6.22
2023-04-14T13:16:32.693Z,6.00
2023-04-14T13:21:29.170Z,7.22
2023-04-14T13:26:25.649Z,6.05
2023-04-14T13:31:22.342Z,5.72
2023-04-14T13:36:18.868Z,6.00
2023-04-14T13:41:16.175Z,6.00
2023-04-14T13:46:12.675Z,6.40
2023-04-14T13:51:09.402Z,6.10
2023-04-14T13:56:06.371Z,6.55
2023-04-14T14:01:10.725Z,6.88
2023-04-14T14:06:07.724Z,6.38
2023-04-14T14:11:07.458Z,6.40
2023-04-14T14:16:06.551Z,6.00
2023-04-14T14:21:04.152Z,6.82
2023-04-14T14:26:00.771Z,6.32
2023-04-14T14:30:57.234Z,6.30
2023-04-14T14:35:53.776Z,6.03
2023-04-14T14:40:50.214Z,6.35
2023-04-14T14:45:46.983Z,6.40
2023-04-14T14:50:43.508Z,6.07
2023-04-14T14:55:39.988Z,6.68
2023-04-14T15:00:36.542Z,5.85
2023-04-14T15:05:34.002Z,5.18
2023-04-14T15:10:30.552Z,5.97
2023-04-14T15:15:27.479Z,5.70
2023-04-14T15:20:23.917Z,6.82
2023-04-14T15:25:20.593Z,7.10
2023-04-14T15:30:17.095Z,6.90
2023-04-14T15:35:13.482Z,7.57
2023-04-14T15:40:10.804Z,7.00
2023-04-14T15:45:07.799Z,6.03
2023-04-14T15:50:10.232Z,5.60
2023-04-14T15:55:07.823Z,7.50
2023-04-14T16:00:07.263Z,7.20
2023-04-14T16:05:07.174Z,8.40
2023-04-14T16:10:04.138Z,7.70
2023-04-14T16:15:00.860Z,6.95
2023-04-14T16:19:57.330Z,6.57
2023-04-14T16:24:53.784Z,6.13
2023-04-14T16:29:50.168Z,6.40
2023-04-14T16:34:46.676Z,5.90
2023-04-14T16:39:43.129Z,6.05
2023-04-14T16:44:39.540Z,5.70
2023-04-14T16:49:36.323Z,5.55
2023-04-14T16:54:32.849Z,5.35
2023-04-14T16:59:29.606Z,6.63
2023-04-14T17:04:26.373Z,6.35
2023-04-14T17:09:23.322Z,5.93
2023-04-14T17:14:19.793Z,6.47
2023-04-14T17:19:16.922Z,6.70
2023-04-14T17:24:13.438Z,7.30
2023-04-14T17:29:10.872Z,6.68
2023-04-14T17:34:10.708Z,7.07
2023-04-14T17:39:08.257Z,7.63
2023-04-14T17:44:04.977Z,6.97
2023-04-14T17:49:01.857Z,7.80
2023-04-14T17:53:58.872Z,7.65
2023-04-14T17:58:55.538Z,8.07
2023-04-14T18:03:52.028Z,8.50
2023-04-14T18:08:48.506Z,7.68
2023-04-14T18:13:44.941Z,8.38
2023-04-14T18:18:41.322Z,7.70
2023-04-14T18:23:38.289Z,9.25
2023-04-14T18:28:35.872Z,10.05
2023-04-14T18:33:32.518Z,10.68
2023-04-14T18:38:28.954Z,10.65
2023-04-14T18:43:25.367Z,9.38
2023-04-14T18:48:21.806Z,10.07
2023-04-14T18:53:18.181Z,9.80
2023-04-14T18:58:14.574Z,10.90
2023-04-14T19:03:11.237Z,10.80
2023-04-14T19:08:07.741Z,12.65
2023-04-14T19:13:04.243Z,11.50
2023-04-14T19:18:01.341Z,11.77
2023-04-14T19:22:58.294Z,11.25
2023-04-14T19:27:55.728Z,11.35
2023-04-14T19:32:54.295Z,11.40
2023-04-14T19:37:55.417Z,10.85
2023-04-14T19:42:54.974Z,9.50
2023-04-14T19:47:52.130Z,8.90
2023-04-14T19:52:51.168Z,10.30
2023-04-14T19:57:47.595Z,9.43
2023-04-14T20:02:44.740Z,8.88
2023-04-14T20:07:41.238Z,8.70
2023-04-14T20:12:37.660Z,9.13
2023-04-14T20:17:35.163Z,9.63
2023-04-14T20:22:33.535Z,9.60
2023-04-14T20:27:29.989Z,9.90
2023-04-14T20:32:26.577Z,9.48
2023-04-14T20:37:23.478Z,10.30
2023-04-14T20:42:20.165Z,9.73
2023-04-14T20:47:16.917Z,8.77
2023-04-14T20:52:13.344Z,8.43
2023-04-14T20:57:09.947Z,8.98
2023-04-14T21:02:06.875Z,7.68
2023-04-14T21:07:03.778Z,8.30
2023-04-14T21:12:15.374Z,7.63
2023-04-14T21:17:13.489Z,8.68
2023-04-14T21:22:10.036Z,8.68
2023-04-14T21:27:06.527Z,9.25
2023-04-14T21:32:02.974Z,9.10
2023-04-14T21:36:59.426Z,8.73
2023-04-14T21:41:59.228Z,8.75
2023-04-14T21:46:55.839Z,9.50
2023-04-14T21:51:52.478Z,7.97
2023-04-14T21:56:50.126Z,9.00
2023-04-14T22:01:47.476Z,10.07
2023-04-14T22:06:44.073Z,8.60
2023-04-14T22:11:40.542Z,9.32
2023-04-14T22:16:37.137Z,8.55
2023-04-14T22:21:34.193Z,8.40
2023-04-14T22:26:31.125Z,8.60
2023-04-14T22:31:27.775Z,7.97
2023-04-14T22:36:24.761Z,8.10
2023-04-14T22:41:21.673Z,8.10
2023-04-14T22:46:24.788Z,7.85
2023-04-14T22:51:23.127Z,7.07
2023-04-14T22:56:19.586Z,6.53
2023-04-14T23:01:22.460Z,6.82
2023-04-14T23:06:20.414Z,6.57
2023-04-14T23:11:20.287Z,6.18
2023-04-14T23:16:19.938Z,7.35
2023-04-14T23:21:16.821Z,6.65
2023-04-14T23:26:17.339Z,5.80
2023-04-14T23:31:14.183Z,6.65
2023-04-14T23:36:10.763Z,6.43
2023-04-14T23:41:07.216Z,6.22
2023-04-14T23:46:21.321Z,6.45
2023-04-14T23:51:19.766Z,6.47
2023-04-14T23:56:17.499Z,6.00
